createdAt,value
2022-12-03T00:00:12.609Z,60.88
2022-12-03T00:03:00.759Z,57.07
2022-12-03T00:05:28.358Z,58.30
2022-12-03T00:07:55.886Z,57.70
2022-12-03T00:10:23.120Z,55.87
2022-12-03T00:12:50.635Z,62.37
2022-12-03T00:15:17.928Z,57.90
2022-12-03T00:17:45.392Z,53.83
2022-12-03T00:20:21.248Z,52.33
2022-12-03T00:22:49.246Z,59.53
2022-12-03T00:25:17.244Z,56.03
2022-12-03T00:27:45.262Z,56.87
2022-12-03T00:30:14.129Z,54.77
2022-12-03T00:32:41.676Z,53.47
2022-12-03T00:35:09.726Z,59.60
2022-12-03T00:37:37.323Z,56.63
2022-12-03T00:40:07.201Z,58.15
2022-12-03T00:42:34.704Z,58.80
2022-12-03T00:45:01.995Z,60.67
2022-12-03T00:47:29.449Z,60.67
2022-12-03T00:49:56.689Z,63.07
2022-12-03T00:52:24.156Z,59.83
2022-12-03T00:54:51.838Z,53.17
2022-12-03T00:57:19.584Z,57.40
2022-12-03T00:59:46.751Z,57.00
2022-12-03T01:02:14.321Z,59.13
2022-12-03T01:04:42.335Z,57.83
2022-12-03T01:07:09.976Z,56.13
2022-12-03T01:09:37.291Z,51.88
2022-12-03T01:12:04.941Z,52.33
2022-12-03T01:14:32.200Z,52.37
2022-12-03T01:16:59.644Z,56.97
2022-12-03T01:19:26.998Z,55.93
2022-12-03T01:21:55.650Z,51.22
2022-12-03T01:24:22.886Z,58.15
2022-12-03T01:26:50.378Z,54.00
2022-12-03T01:29:17.616Z,52.85
2022-12-03T01:32:03.603Z,54.47
2022-12-03T01:34:30.802Z,56.53
2022-12-03T01:36:58.364Z,55.00
2022-12-03T01:39:25.610Z,53.33
2022-12-03T01:41:55.412Z,56.63
2022-12-03T01:44:27.458Z,54.03
2022-12-03T01:46:58.758Z,53.38
2022-12-03T01:49:42.572Z,53.20
2022-12-03T01:52:23.054Z,54.67
2022-12-03T01:55:00.566Z,57.03
2022-12-03T01:57:43.865Z,52.20
2022-12-03T02:00:18.842Z,59.30
2022-12-03T02:02:50.744Z,60.73
2022-12-03T02:05:23.241Z,50.83
2022-12-03T02:07:51.145Z,60.57
2022-12-03T02:10:31.441Z,47.53
2022-12-03T02:13:07.156Z,46.97
2022-12-03T02:15:36.056Z,49.37
2022-12-03T02:18:03.981Z,48.63
2022-12-03T02:20:35.932Z,53.67
2022-12-03T02:23:24.682Z,52.47
2022-12-03T02:25:52.034Z,51.55
2022-12-03T02:28:19.538Z,55.83
2022-12-03T02:30:46.833Z,42.80
2022-12-03T02:33:14.645Z,50.10
2022-12-03T02:35:42.020Z,44.83
2022-12-03T02:38:29.963Z,46.90
2022-12-03T02:41:04.851Z,52.93
2022-12-03T02:43:32.767Z,50.33
2022-12-03T02:46:02.649Z,47.50
2022-12-03T02:48:38.545Z,48.67
2022-12-03T02:51:10.224Z,49.43
2022-12-03T02:53:50.246Z,48.93
2022-12-03T02:56:22.899Z,49.40
2022-12-03T02:58:56.661Z,51.10
2022-12-03T03:01:24.351Z,49.03
2022-12-03T03:03:53.156Z,51.50
2022-12-03T03:06:22.036Z,51.03
2022-12-03T03:08:51.099Z,50.20
2022-12-03T03:11:18.654Z,54.03
2022-12-03T03:13:46.576Z,49.80
2022-12-03T03:16:13.958Z,49.30
2022-12-03T03:18:42.172Z,47.03
2022-12-03T03:21:09.659Z,48.47
2022-12-03T03:23:37.095Z,51.60
2022-12-03T03:26:12.251Z,48.13
2022-12-03T03:28:47.536Z,49.90
2022-12-03T03:31:19.586Z,49.33
2022-12-03T03:33:50.184Z,48.00
2022-12-03T03:36:18.222Z,45.23
2022-12-03T03:38:47.206Z,52.83
2022-12-03T03:41:16.092Z,43.43
2022-12-03T03:43:45.653Z,47.80
2022-12-03T03:46:14.660Z,47.20
2022-12-03T03:48:43.697Z,46.60
2022-12-03T03:51:12.587Z,48.37
2022-12-03T03:53:44.636Z,44.78
2022-12-03T03:56:12.776Z,44.08
2022-12-03T03:58:40.147Z,50.17
2022-12-03T04:01:09.260Z,50.53
2022-12-03T04:03:36.930Z,47.97
2022-12-03T04:06:04.704Z,48.90
2022-12-03T04:08:32.861Z,49.37
2022-12-03T04:11:18.655Z,49.27
2022-12-03T04:13:45.932Z,50.87
2022-12-03T04:16:13.396Z,51.03
2022-12-03T04:18:43.350Z,52.80
2022-12-03T04:21:36.135Z,52.33
2022-12-03T04:24:05.191Z,52.83
2022-12-03T04:26:51.758Z,55.27
2022-12-03T04:29:20.485Z,49.30
2022-12-03T04:32:06.568Z,54.13
2022-12-03T04:34:53.185Z,50.07
2022-12-03T04:37:20.931Z,59.00
2022-12-03T04:39:48.259Z,54.50
2022-12-03T04:42:15.908Z,57.17
2022-12-03T04:44:43.365Z,55.85
2022-12-03T04:47:18.301Z,60.38
2022-12-03T04:49:49.423Z,61.27
2022-12-03T04:52:19.983Z,58.90
2022-12-03T04:54:47.468Z,56.33
2022-12-03T04:57:15.087Z,62.43
2022-12-03T04:59:42.328Z,60.50
2022-12-03T05:02:10.009Z,58.83
2022-12-03T05:04:37.411Z,62.10
2022-12-03T05:07:05.000Z,66.25
2022-12-03T05:09:32.432Z,64.85
2022-12-03T05:12:00.000Z,60.07
2022-12-03T05:14:27.210Z,58.17
2022-12-03T05:16:54.738Z,65.28
2022-12-03T05:19:41.943Z,57.13
2022-12-03T05:22:09.424Z,58.95
2022-12-03T05:24:36.591Z,60.87
2022-12-03T05:27:04.211Z,65.63
2022-12-03T05:29:31.338Z,66.53
2022-12-03T05:31:58.871Z,65.13
2022-12-03T05:34:26.000Z,62.53
2022-12-03T05:36:53.411Z,60.53
2022-12-03T05:39:20.609Z,62.07
2022-12-03T05:42:06.407Z,67.93
2022-12-03T05:44:33.593Z,64.87
2022-12-03T05:47:01.023Z,63.83
2022-12-03T05:49:28.164Z,69.17
2022-12-03T05:51:58.599Z,64.07
2022-12-03T05:54:26.431Z,60.07
2022-12-03T05:56:53.960Z,69.32
2022-12-03T05:59:21.381Z,65.50
2022-12-03T06:01:48.878Z,67.53
2022-12-03T06:04:16.036Z,68.07
2022-12-03T06:06:43.615Z,62.53
2022-12-03T06:09:10.846Z,64.27
2022-12-03T06:11:40.019Z,65.55
2022-12-03T06:14:08.056Z,64.80
2022-12-03T06:16:35.685Z,67.00
2022-12-03T06:19:02.973Z,63.93
2022-12-03T06:21:30.386Z,66.80
2022-12-03T06:23:57.527Z,66.25
2022-12-03T06:26:25.016Z,65.80
2022-12-03T06:28:52.532Z,69.63
2022-12-03T06:31:20.107Z,70.73
2022-12-03T06:33:47.550Z,68.57
2022-12-03T06:36:17.807Z,65.40
2022-12-03T06:38:48.624Z,66.38
2022-12-03T06:41:16.051Z,66.78
2022-12-03T06:43:43.336Z,82.00
2022-12-03T06:46:10.936Z,67.50
2022-12-03T06:48:39.800Z,66.28
2022-12-03T06:51:07.242Z,64.53
2022-12-03T06:53:34.446Z,71.67
2022-12-03T06:56:01.904Z,75.63
2022-12-03T06:58:29.155Z,69.37
2022-12-03T07:00:56.603Z,70.70
2022-12-03T07:03:23.847Z,73.25
2022-12-03T07:05:51.333Z,75.13
2022-12-03T07:08:18.521Z,76.20
2022-12-03T07:10:46.116Z,70.83
2022-12-03T07:13:13.238Z,73.60
2022-12-03T07:15:40.786Z,67.87
2022-12-03T07:18:08.139Z,75.40
2022-12-03T07:20:35.594Z,67.07
2022-12-03T07:23:02.800Z,76.10
2022-12-03T07:25:30.509Z,80.67
2022-12-03T07:27:57.682Z,74.33
2022-12-03T07:30:25.788Z,73.77
2022-12-03T07:32:52.919Z,78.90
2022-12-03T07:35:20.368Z,76.83
2022-12-03T07:37:47.875Z,75.50
2022-12-03T07:40:15.599Z,78.47
2022-12-03T07:42:42.769Z,83.43
2022-12-03T07:45:11.032Z,72.60
2022-12-03T07:47:38.213Z,81.87
2022-12-03T07:50:06.571Z,81.50
2022-12-03T07:52:33.784Z,81.27
2022-12-03T07:55:01.218Z,81.88
2022-12-03T07:57:28.461Z,75.77
2022-12-03T07:59:55.901Z,80.00
2022-12-03T08:02:23.143Z,79.97
2022-12-03T08:04:51.188Z,80.47
2022-12-03T08:07:18.527Z,88.13
2022-12-03T08:09:46.262Z,84.67
2022-12-03T08:12:40.318Z,84.03
2022-12-03T08:15:11.507Z,83.43
2022-12-03T08:17:42.528Z,82.77
2022-12-03T08:20:20.361Z,88.50
2022-12-03T08:22:51.057Z,78.70
2022-12-03T08:25:32.159Z,84.53
2022-12-03T08:28:20.836Z,89.10
2022-12-03T08:31:01.579Z,80.70
2022-12-03T08:33:35.387Z,82.23
2022-12-03T08:36:29.317Z,93.50
2022-12-03T08:39:07.235Z,85.07
2022-12-03T08:41:55.156Z,82.43
2022-12-03T08:44:38.592Z,86.65
2022-12-03T08:47:24.454Z,90.37
2022-12-03T08:50:00.328Z,87.23
2022-12-03T08:52:33.304Z,95.53
2022-12-03T08:55:33.754Z,88.50
2022-12-03T08:58:16.416Z,88.13
2022-12-03T09:00:44.551Z,86.50
2022-12-03T09:03:19.422Z,83.50
2022-12-03T09:05:46.636Z,93.37
2022-12-03T09:08:14.161Z,88.55
2022-12-03T09:10:41.400Z,90.32
2022-12-03T09:13:09.313Z,85.82
2022-12-03T09:15:36.451Z,79.85
2022-12-03T09:18:04.149Z,87.68
2022-12-03T09:20:31.373Z,92.20
2022-12-03T09:22:58.845Z,83.97
2022-12-03T09:25:26.022Z,79.20
2022-12-03T09:27:53.741Z,90.03
2022-12-03T09:30:21.002Z,91.75
2022-12-03T09:32:48.589Z,71.80
2022-12-03T09:35:16.007Z,76.00
2022-12-03T09:37:43.684Z,76.40
2022-12-03T09:40:12.111Z,79.53
2022-12-03T09:42:40.015Z,72.68
2022-12-03T09:45:12.354Z,74.65
2022-12-03T09:47:50.676Z,73.18
2022-12-03T09:50:26.541Z,79.45
2022-12-03T09:52:58.574Z,82.22
2022-12-03T09:55:28.772Z,82.57
2022-12-03T09:57:57.703Z,74.50
2022-12-03T10:00:30.037Z,71.30
2022-12-03T10:03:02.598Z,76.35
2022-12-03T10:05:30.302Z,80.43
2022-12-03T10:08:08.477Z,76.35
2022-12-03T10:10:39.185Z,83.53
2022-12-03T10:13:10.856Z,78.32
2022-12-03T10:15:38.294Z,87.55
2022-12-03T10:18:30.795Z,87.80
2022-12-03T10:20:58.781Z,82.30
2022-12-03T10:23:31.475Z,81.40
2022-12-03T10:26:04.161Z,79.57
2022-12-03T10:28:40.042Z,91.30
2022-12-03T10:31:12.987Z,92.97
2022-12-03T10:33:45.265Z,92.38
2022-12-03T10:36:23.369Z,82.80
2022-12-03T10:39:16.517Z,82.32
2022-12-03T10:41:45.086Z,80.75
2022-12-03T10:44:30.600Z,80.90
2022-12-03T10:47:14.027Z,90.60
2022-12-03T10:49:42.756Z,97.97
2022-12-03T10:52:30.320Z,92.70
2022-12-03T10:54:58.208Z,89.78
2022-12-03T10:57:25.798Z,93.30
2022-12-03T10:59:53.324Z,96.10
2022-12-03T11:02:24.463Z,96.60
2022-12-03T11:04:52.838Z,87.68
2022-12-03T11:07:22.341Z,96.63
2022-12-03T11:09:54.790Z,87.63
2022-12-03T11:12:28.846Z,86.55
2022-12-03T11:14:57.624Z,90.28
2022-12-03T11:17:43.174Z,85.22
2022-12-03T11:20:33.685Z,85.93
2022-12-03T11:23:00.915Z,91.60
2022-12-03T11:25:28.361Z,90.63
2022-12-03T11:28:13.608Z,95.68
2022-12-03T11:30:50.655Z,90.50
2022-12-03T11:33:21.743Z,101.50
2022-12-03T11:36:04.529Z,93.68
2022-12-03T11:38:37.943Z,86.85
2022-12-03T11:41:13.111Z,82.72
2022-12-03T11:43:52.276Z,96.45
2022-12-03T11:46:36.389Z,86.22
2022-12-03T11:49:32.788Z,82.50
2022-12-03T11:52:11.387Z,87.82
2022-12-03T11:54:38.679Z,92.20
2022-12-03T11:57:27.750Z,94.20
2022-12-03T12:00:09.391Z,91.50
2022-12-03T12:02:36.951Z,88.07
2022-12-03T12:05:27.628Z,91.28
2022-12-03T12:07:56.343Z,92.70
2022-12-03T12:10:43.879Z,90.57
2022-12-03T12:13:34.052Z,94.60
2022-12-03T12:16:06.961Z,86.00
2022-12-03T12:18:45.796Z,98.93
2022-12-03T12:21:50.821Z,98.32
2022-12-03T12:24:54.204Z,94.63
2022-12-03T12:27:36.459Z,92.55
2022-12-03T12:30:19.909Z,99.18
2022-12-03T12:33:07.123Z,98.25
2022-12-03T12:35:34.646Z,94.05
2022-12-03T12:38:07.635Z,101.63
2022-12-03T12:40:38.747Z,109.05
2022-12-03T12:43:15.253Z,102.80
2022-12-03T12:45:45.620Z,100.10
2022-12-03T12:48:28.975Z,101.45
2022-12-03T12:51:19.442Z,96.97
2022-12-03T12:53:47.136Z,97.28
2022-12-03T12:56:32.185Z,98.22
2022-12-03T12:59:14.465Z,97.68
2022-12-03T13:01:44.941Z,94.20
2022-12-03T13:04:22.706Z,98.90
2022-12-03T13:06:54.035Z,94.38
2022-12-03T13:09:26.484Z,91.72
2022-12-03T13:12:03.935Z,100.28
2022-12-03T13:14:35.944Z,94.75
2022-12-03T13:17:18.441Z,95.68
2022-12-03T13:19:49.466Z,94.05
2022-12-03T13:22:23.085Z,98.95
2022-12-03T13:24:52.619Z,89.00
2022-12-03T13:27:20.102Z,99.22
2022-12-03T13:29:55.257Z,108.35
2022-12-03T13:32:34.224Z,115.15
2022-12-03T13:35:13.293Z,108.53
2022-12-03T13:37:40.861Z,109.78
2022-12-03T13:40:30.695Z,104.20
2022-12-03T13:42:59.539Z,101.70
2022-12-03T13:45:38.924Z,109.95
2022-12-03T13:48:25.689Z,106.88
2022-12-03T13:50:53.608Z,92.88
2022-12-03T13:53:34.944Z,93.00
2022-12-03T13:56:31.259Z,104.93
2022-12-03T13:59:01.309Z,101.20
2022-12-03T14:01:29.115Z,109.53
2022-12-03T14:03:57.119Z,91.43
2022-12-03T14:06:24.394Z,99.93
2022-12-03T14:08:51.897Z,109.35
2022-12-03T14:11:37.828Z,97.37
2022-12-03T14:14:05.472Z,102.13
2022-12-03T14:16:32.711Z,105.53
2022-12-03T14:19:00.316Z,110.07
2022-12-03T14:21:27.467Z,123.65
2022-12-03T14:23:54.925Z,122.47
2022-12-03T14:26:22.059Z,107.27
2022-12-03T14:28:49.535Z,110.07
2022-12-03T14:31:16.942Z,104.93
2022-12-03T14:33:44.446Z,112.93
2022-12-03T14:36:11.809Z,121.85
2022-12-03T14:38:39.351Z,114.30
2022-12-03T14:41:26.638Z,115.25
2022-12-03T14:43:54.066Z,107.73
2022-12-03T14:46:21.314Z,111.27
2022-12-03T14:48:48.749Z,106.80
2022-12-03T14:51:15.975Z,105.60
2022-12-03T14:53:43.419Z,106.43
2022-12-03T14:56:10.603Z,97.00
2022-12-03T14:58:38.473Z,100.10
2022-12-03T15:01:06.038Z,91.17
2022-12-03T15:03:33.589Z,100.17
2022-12-03T15:06:00.838Z,93.83
2022-12-03T15:08:28.949Z,97.83
2022-12-03T15:10:56.391Z,95.73
2022-12-03T15:13:23.851Z,101.95
2022-12-03T15:15:51.153Z,88.83
2022-12-03T15:18:18.830Z,98.33
2022-12-03T15:20:46.126Z,112.67
2022-12-03T15:23:14.745Z,104.90
2022-12-03T15:25:42.286Z,102.40
2022-12-03T15:28:10.179Z,109.47
2022-12-03T15:30:37.398Z,108.00
2022-12-03T15:33:05.396Z,98.47
2022-12-03T15:35:33.743Z,100.23
2022-12-03T15:38:01.443Z,105.37
2022-12-03T15:40:28.714Z,103.07
2022-12-03T15:42:56.232Z,101.73
2022-12-03T15:45:23.385Z,97.97
2022-12-03T15:47:50.863Z,91.50
2022-12-03T15:50:18.243Z,96.67
2022-12-03T15:52:45.705Z,97.40
2022-12-03T15:55:13.128Z,102.83
2022-12-03T15:57:40.743Z,99.85
2022-12-03T16:00:10.539Z,108.30
2022-12-03T16:02:38.123Z,102.33
2022-12-03T16:05:09.923Z,101.60
2022-12-03T16:07:38.218Z,102.80
2022-12-03T16:10:08.478Z,105.67
2022-12-03T16:12:36.035Z,94.30
2022-12-03T16:15:03.721Z,104.57
2022-12-03T16:17:31.144Z,98.80
2022-12-03T16:19:58.360Z,94.73
2022-12-03T16:22:25.794Z,100.40
2022-12-03T16:24:52.933Z,97.53
2022-12-03T16:27:25.302Z,99.40
2022-12-03T16:29:53.413Z,97.87
2022-12-03T16:32:21.190Z,100.60
2022-12-03T16:34:48.425Z,101.97
2022-12-03T16:37:16.081Z,97.63
2022-12-03T16:39:43.295Z,98.07
2022-12-03T16:42:16.961Z,99.97
2022-12-03T16:45:14.181Z,100.93
2022-12-03T16:47:41.678Z,92.23
2022-12-03T16:50:15.856Z,97.90
2022-12-03T16:52:47.621Z,89.20
2022-12-03T16:55:14.838Z,101.37
2022-12-03T16:57:42.304Z,94.70
2022-12-03T17:00:10.276Z,106.33
2022-12-03T17:02:37.759Z,99.63
2022-12-03T17:05:05.415Z,85.70
2022-12-03T17:07:32.963Z,92.17
2022-12-03T17:10:00.275Z,91.73
2022-12-03T17:12:42.306Z,90.50
2022-12-03T17:15:15.349Z,97.37
2022-12-03T17:17:42.961Z,96.90
2022-12-03T17:20:12.603Z,85.33
2022-12-03T17:22:41.545Z,98.97
2022-12-03T17:25:10.509Z,97.83
2022-12-03T17:27:43.543Z,94.93
2022-12-03T17:30:13.621Z,85.90
2022-12-03T17:32:41.427Z,98.17
2022-12-03T17:35:10.675Z,83.85
2022-12-03T17:37:38.552Z,81.05
2022-12-03T17:40:08.847Z,95.27
2022-12-03T17:42:36.428Z,87.23
2022-12-03T17:45:04.109Z,81.50
2022-12-03T17:47:31.780Z,82.20
2022-12-03T17:49:59.030Z,86.50
2022-12-03T17:52:26.547Z,82.10
2022-12-03T17:55:12.212Z,92.17
2022-12-03T17:57:41.444Z,87.47
2022-12-03T18:00:09.664Z,88.37
2022-12-03T18:02:37.218Z,92.53
2022-12-03T18:05:04.781Z,88.73
2022-12-03T18:07:32.885Z,88.53
2022-12-03T18:10:00.255Z,86.97
2022-12-03T18:12:27.884Z,85.67
2022-12-03T18:14:55.223Z,83.43
2022-12-03T18:17:22.737Z,88.57
2022-12-03T18:19:49.987Z,91.20
2022-12-03T18:22:17.914Z,89.90
2022-12-03T18:24:47.536Z,91.60
2022-12-03T18:27:17.838Z,87.23
2022-12-03T18:29:45.171Z,93.03
2022-12-03T18:32:27.689Z,87.10
2022-12-03T18:34:56.620Z,88.18
2022-12-03T18:37:28.759Z,93.00
2022-12-03T18:39:58.755Z,91.47
2022-12-03T18:42:27.187Z,87.50
2022-12-03T18:44:56.522Z,84.70
2022-12-03T18:47:28.912Z,92.13
2022-12-03T18:49:57.760Z,88.93
2022-12-03T18:52:25.621Z,96.37
2022-12-03T18:54:53.371Z,94.17
2022-12-03T18:57:20.831Z,93.90
2022-12-03T18:59:48.116Z,88.97
2022-12-03T19:03:01.999Z,91.63
2022-12-03T19:05:10.730Z,87.93
2022-12-03T19:07:38.542Z,92.53
2022-12-03T19:10:06.664Z,91.07
2022-12-03T19:12:34.463Z,88.17
2022-12-03T19:15:02.925Z,92.63
2022-12-03T19:17:30.557Z,87.47
2022-12-03T19:19:58.221Z,78.13
2022-12-03T19:22:25.842Z,88.97
2022-12-03T19:24:53.188Z,83.87
2022-12-03T19:27:20.727Z,88.95
2022-12-03T19:29:51.123Z,88.72
2022-12-03T19:32:18.622Z,83.80
2022-12-03T19:34:45.893Z,82.77
2022-12-03T19:37:13.363Z,79.22
2022-12-03T19:39:41.186Z,85.83
2022-12-03T19:42:10.053Z,80.80
2022-12-03T19:44:37.621Z,88.28
2022-12-03T19:47:05.175Z,86.07
2022-12-03T19:49:32.547Z,85.73
2022-12-03T19:52:00.038Z,74.97
2022-12-03T19:54:27.281Z,81.63
2022-12-03T19:56:54.792Z,88.87
2022-12-03T19:59:21.975Z,91.03
2022-12-03T20:01:49.602Z,82.70
2022-12-03T20:04:17.054Z,80.65
2022-12-03T20:06:45.521Z,88.25
2022-12-03T20:09:17.961Z,77.57
2022-12-03T20:11:46.183Z,86.13
2022-12-03T20:14:17.575Z,86.40
2022-12-03T20:16:45.626Z,83.60
2022-12-03T20:19:16.362Z,88.80
2022-12-03T20:21:44.904Z,87.40
2022-12-03T20:24:18.145Z,88.67
2022-12-03T20:26:45.784Z,85.60
2022-12-03T20:29:13.270Z,86.63
2022-12-03T20:31:41.000Z,88.83
2022-12-03T20:34:08.326Z,93.73
2022-12-03T20:36:36.117Z,96.03
2022-12-03T20:39:07.516Z,88.57
2022-12-03T20:41:36.997Z,97.45
2022-12-03T20:44:07.649Z,87.80
2022-12-03T20:46:36.296Z,86.80
2022-12-03T20:49:04.314Z,96.20
2022-12-03T20:51:32.196Z,86.00
2022-12-03T20:54:01.321Z,88.73
2022-12-03T20:56:35.907Z,84.53
2022-12-03T20:59:07.195Z,87.23
2022-12-03T21:01:36.413Z,82.80
2022-12-03T21:04:05.497Z,85.28
2022-12-03T21:06:36.204Z,89.70
2022-12-03T21:09:06.932Z,92.90
2022-12-03T21:11:36.213Z,92.47
2022-12-03T21:14:05.117Z,82.10
2022-12-03T21:17:07.898Z,85.10
2022-12-03T21:19:24.865Z,86.32
2022-12-03T21:21:52.594Z,89.65
2022-12-03T21:24:20.017Z,76.27
2022-12-03T21:26:47.660Z,88.47
2022-12-03T21:29:15.046Z,85.50
2022-12-03T21:31:42.864Z,89.75
2022-12-03T21:34:11.278Z,86.03
2022-12-03T21:36:39.672Z,89.50
2022-12-03T21:39:08.058Z,86.40
2022-12-03T21:41:35.677Z,91.95
2022-12-03T21:44:03.938Z,94.13
2022-12-03T21:47:12.689Z,90.25
2022-12-03T21:49:20.902Z,92.53
2022-12-03T21:51:49.065Z,97.67
2022-12-03T21:54:16.693Z,84.85
2022-12-03T21:56:44.408Z,96.28
2022-12-03T21:59:11.775Z,89.35
2022-12-03T22:01:42.894Z,94.05
2022-12-03T22:04:14.117Z,89.60
2022-12-03T22:06:41.992Z,83.78
2022-12-03T22:09:09.259Z,86.50
2022-12-03T22:11:36.936Z,89.60
2022-12-03T22:14:06.897Z,85.63
2022-12-03T22:16:34.741Z,78.80
2022-12-03T22:19:02.290Z,85.93
2022-12-03T22:21:30.665Z,84.60
2022-12-03T22:23:59.059Z,80.82
2022-12-03T22:26:27.290Z,83.97
2022-12-03T22:28:55.245Z,79.80
2022-12-03T22:31:27.411Z,76.00
2022-12-03T22:33:57.434Z,81.60
2022-12-03T22:36:24.968Z,71.30
2022-12-03T22:38:52.246Z,75.03
2022-12-03T22:41:20.590Z,78.13
2022-12-03T22:43:49.704Z,67.72
2022-12-03T22:46:17.640Z,73.95
2022-12-03T22:48:47.549Z,78.68
2022-12-03T22:51:21.361Z,77.68
2022-12-03T22:53:55.045Z,83.63
2022-12-03T22:56:22.818Z,72.78
2022-12-03T22:58:52.819Z,78.07
2022-12-03T23:01:26.871Z,78.03
2022-12-03T23:03:55.053Z,80.40
2022-12-03T23:06:24.202Z,74.93
2022-12-03T23:08:52.397Z,73.17
2022-12-03T23:11:20.538Z,69.60
2022-12-03T23:13:49.197Z,70.70
2022-12-03T23:16:24.752Z,77.27
2022-12-03T23:18:53.273Z,76.82
2022-12-03T23:21:29.968Z,76.00
2022-12-03T23:24:00.067Z,78.32
2022-12-03T23:26:29.025Z,72.40
2022-12-03T23:28:56.638Z,71.07
2022-12-03T23:31:31.422Z,71.22
2022-12-03T23:33:59.943Z,72.35
2022-12-03T23:36:31.757Z,70.83
2022-12-03T23:38:59.005Z,73.63
2022-12-03T23:41:31.584Z,73.20
2022-12-03T23:43:58.819Z,77.18
2022-12-03T23:46:28.166Z,69.57
2022-12-03T23:48:56.201Z,74.87
2022-12-03T23:51:25.654Z,72.88
2022-12-03T23:53:54.806Z,83.67
2022-12-03T23:56:28.122Z,67.88
2022-12-03T23:58:56.019Z,73.77
